Weather observations for the past three days for
McAlester, McAlester Regional Airport
Imperial (Metric)
Date Time (cdt) Wind (mph) Vis. (mi.) Weather Sky Cond. Temperature (ºF) Relative Humidity Wind Chill (°F) Heat Index (°F) Pressure Precipitation (in)
Air Dwpt 6 hour altimeter (in) sea level (mb) 1 hr 3 hr 6 hr
Max. Min.
01 01:53 S 3 10.00 Mostly Cloudy BKN100 84.9 64.9 51% 87 30.02 1015.2
01 00:53 SE 5 10.00 Mostly Cloudy BKN095 82.9 64.9 99 80.1 55% 85 30.01 1014.9
31 23:53 Calm 10.00 A Few Clouds FEW095 82.9 64 53% 84 29.99 1014.4
31 22:53 S 3 10.00 A Few Clouds FEW100 82.9 64 53% 84 29.99 1014.3
31 21:53 SW 3 10.00 Overcast OVC095 86 62.1 45% 87 29.98 1014.1
31 20:53 S 3 10.00 A Few Clouds FEW095 88 61 40% 88 29.96 1013.3
31 19:53 S 3 10.00 Mostly Cloudy BKN100 90 61 38% 90 29.94 1012.7
31 18:53 SW 5 10.00 Fair CLR 99 61 102.9 97 29% 100 29.94 1012.6
31 17:53 Vrbl 5 10.00 Partly Cloudy SCT100 100.9 59 25% 101 29.94 1012.5
31 16:53 Calm 10.00 Mostly Cloudy BKN100 102 59 24% 102 29.95 1012.8
31 15:53 S 8 10.00 Mostly Cloudy BKN095 100 61 28% 101 29.96 1013.3
31 14:53 S 5 10.00 Partly Cloudy SCT100 98.1 61 29% 99 29.99 1014.3
31 13:53 Vrbl 5 10.00 Mostly Cloudy BKN100 98.1 62.1 31% 99 30.01 1015.1
31 12:53 Vrbl 3 10.00 A Few Clouds FEW100 98.1 64 99 75 33% 101 30.04 1015.8
31 11:53 SW 6 10.00 Fair CLR 96.1 66.9 39% 100 30.05 1016.3
31 10:53 SW 8 10.00 Partly Cloudy SCT090 93.9 68 43% 98 30.06 1016.6
31 09:53 SW 6 10.00 Fair CLR 91.9 68 46% 96 30.05 1016.3
31 08:53 Vrbl 3 10.00 Fair CLR 86 66.9 53% 89 30.05 1016.5
31 07:53 Calm 10.00 A Few Clouds FEW090 82 66.9 60% 85 30.03 1015.8
31 06:53 Calm 10.00 Fair CLR 75.9 64.9 84.9 75.9 69% 78 30.01 1015.0
31 05:53 Calm 10.00 Mostly Cloudy BKN090 80.1 64.9 60% 82 29.99 1014.1
31 04:53 SE 3 10.00 Partly Cloudy SCT090 81 64 57% 83 29.98 1014.0
31 03:53 SE 6 10.00 Fair CLR 81 63 54% 82 29.97 1013.7
31 02:53 SE 5 10.00 A Few Clouds FEW090 82.9 62.1 49% 84 29.98 1013.9
31 01:53 SE 3 10.00 Fair CLR 82 62.1 51% 83 29.98 1013.9
31 00:53 S 5 10.00 Fair CLR 84 62.1 98.1 84 48% 85 29.98 1013.8
30 23:53 SE 5 10.00 Fair CLR 86 62.1 45% 87 29.97 1013.5
30 22:53 Vrbl 6 10.00 Fair CLR 87.1 63 45% 88 29.95 1013.0
30 21:53 Vrbl 5 10.00 Fair CLR 90 63 41% 91 29.94 1012.7
30 20:53 S 5 10.00 Fair CLR 91 62.1 38% 92 29.92 1011.9
30 19:53 S 3 10.00 Fair CLR 93 62.1 36% 94 29.91 1011.6
30 18:53 S 5 10.00 Fair CLR 98.1 62.1 102.9 98.1 31% 99 29.91 1011.6
30 17:53 Vrbl 5 10.00 Partly Cloudy SCT100 102 60.1 25% 103 29.91 1011.5
30 16:53 Vrbl 7 10.00 A Few Clouds FEW100 102 59 24% 102 29.91 1011.6
30 15:53 Vrbl 5 G 17 10.00 A Few Clouds FEW095 100.9 61 27% 102 29.93 1012.3
30 14:53 Vrbl 7 10.00 Fair CLR 100.9 61 27% 102 29.96 1013.1
30 13:53 SW 8 G 20 10.00 Fair CLR 100.9 62.1 28% 103 29.97 1013.6
30 12:53 S 9 G 18 10.00 Fair CLR 100 64.9 100 78.1 32% 103 29.99 1014.4
30 11:53 SW 12 G 18 10.00 Fair CLR 96.1 66 37% 100 30.02 1015.1
30 10:53 S 7 10.00 Fair CLR 93 66 41% 96 30.03 1015.6
30 09:53 SW 10 G 17 10.00 Fair CLR 90 66 45% 93 30.03 1015.7
30 08:53 S 6 10.00 Fair CLR 86 66.9 53% 89 30.03 1015.7
30 07:53 Vrbl 3 10.00 Fair CLR 80.1 62.1 54% 81 30.03 1015.6
30 06:53 S 5 10.00 Fair CLR 79 60.1 84 78.1 52% 80 30.01 1015.0
30 05:53 S 3 10.00 Fair CLR 78.1 59 52% 79 30 1014.8
30 04:53 SE 5 10.00 Fair CLR 79 59 50% 80 30 1014.5
30 03:53 SE 6 10.00 Fair CLR 82 57.9 44% 82 29.99 1014.4
30 02:53 SE 5 10.00 Fair CLR 82 61 49% 83 29.99 1014.1
30 01:53 Vrbl 5 10.00 Fair CLR 82.9 61 48% 83 29.99 1014.3
30 00:53 Calm 10.00 Fair CLR 84 61 99 84 46% 84 29.99 1014.4
29 23:53 SE 6 10.00 Fair CLR 84.9 61 45% 85 29.99 1014.2
29 22:53 SE 5 10.00 Fair CLR 87.1 59 39% 86 29.98 1014.0
29 21:53 S 3 10.00 Fair CLR 89.1 59 36% 88 29.97 1013.8
29 20:53 Vrbl 3 10.00 Fair CLR 90 59 35% 89 29.95 1013.0
29 19:53 Vrbl 3 10.00 Fair CLR 93 59 32% 92 29.94 1012.7
29 18:53 Vrbl 5 10.00 Mostly Cloudy BKN100 99 60.1 102.9 97 28% 99 29.94 1012.6
29 17:53 S 7 10.00 A Few Clouds FEW095 100 61 28% 101 29.94 1012.6
29 16:53 Vrbl 6 10.00 Partly Cloudy SCT090 102.9 61 25% 104 29.95 1012.9
29 15:53 E 3 10.00 Fair CLR 100.9 61 27% 102 29.98 1013.8
29 14:53 Vrbl 5 10.00 Fair CLR 100 62.1 29% 102 30 1014.6
29 13:53 SW 8 10.00 A Few Clouds FEW080 100 64.9 32% 103 30.02 1015.5
29 12:53 SW 12 10.00 Fair CLR 99 66 99 75.9 34% 103 30.05 1016.2
29 11:53 Vrbl 7 10.00 Fair CLR 95 66.9 40% 99 30.07 1017.1
29 10:53 Vrbl 6 10.00 Fair CLR 91 66 44% 94 30.08 1017.5
29 09:53 Vrbl 5 10.00 Fair CLR 89.1 66 47% 92 30.08 1017.3
29 08:53 Calm 10.00 Fair CLR 82.9 66 57% 85 30.09 1017.7
29 07:53 Calm 10.00 Fair CLR 78.1 64.9 64% 80 30.08 1017.6
29 06:53 Vrbl 6 10.00 Fair CLR 78.1 64 78.1 71.1 62% 80 30.08 1017.3
29 05:53 SE 3 10.00 Fair CLR 72 62.1 71% 30.07 1017.1
29 04:53 SE 3 10.00 Fair CLR 73 61 66% 30.06 1016.6
29 03:53 SE 3 10.00 Fair CLR 73 60.1 64% 30.05 1016.5
29 02:53 SE 3 10.00 Fair CLR 73 57.9 59% 30.05 1016.5
Date Time (cdt) Wind (mph) Vis. (mi.) Weather Sky Cond. Air Dwpt Max. Min. Relative Humidity Wind Chill (°F) Heat Index (°F) altimeter (in) sea level (mb) 1 hr 3 hr 6 hr
6 hour
Temperature (ºF) Pressure Precipitation (in)